sensor_id;sensor_type;location;lat;lon;timestamp;P1;durP1;ratioP1;P2;durP2;ratioP2
37409;SDS011;23275;48.914;12.566;2023-07-29T00:01:15;2.92;;;1.42;;
37409;SDS011;23275;48.914;12.566;2023-07-29T00:03:40;2.08;;;1.23;;
37409;SDS011;23275;48.914;12.566;2023-07-29T00:06:06;2.65;;;1.50;;
37409;SDS011;23275;48.914;12.566;2023-07-29T00:08:31;2.22;;;1.30;;
37409;SDS011;23275;48.914;12.566;2023-07-29T00:10:57;2.58;;;1.48;;
37409;SDS011;23275;48.914;12.566;2023-07-29T00:13:22;2.85;;;1.20;;
37409;SDS011;23275;48.914;12.566;2023-07-29T00:15:48;5.28;;;1.90;;
37409;SDS011;23275;48.914;12.566;2023-07-29T00:18:14;5.45;;;1.42;;
37409;SDS011;23275;48.914;12.566;2023-07-29T00:20:39;3.75;;;2.55;;
37409;SDS011;23275;48.914;12.566;2023-07-29T00:23:05;3.33;;;1.48;;
37409;SDS011;23275;48.914;12.566;2023-07-29T00:25:30;3.10;;;1.15;;
37409;SDS011;23275;48.914;12.566;2023-07-29T00:27:56;2.75;;;1.27;;
37409;SDS011;23275;48.914;12.566;2023-07-29T00:30:21;3.70;;;1.08;;
37409;SDS011;23275;48.914;12.566;2023-07-29T00:32:47;3.58;;;1.60;;
37409;SDS011;23275;48.914;12.566;2023-07-29T00:35:12;6.07;;;2.10;;
37409;SDS011;23275;48.914;12.566;2023-07-29T00:37:38;5.65;;;1.63;;
37409;SDS011;23275;48.914;12.566;2023-07-29T00:40:07;4.07;;;1.40;;
37409;SDS011;23275;48.914;12.566;2023-07-29T00:42:39;3.63;;;1.63;;
37409;SDS011;23275;48.914;12.566;2023-07-29T00:45:07;4.32;;;1.83;;
37409;SDS011;23275;48.914;12.566;2023-07-29T00:47:34;3.75;;;1.77;;
37409;SDS011;23275;48.914;12.566;2023-07-29T00:49:59;6.05;;;2.10;;
37409;SDS011;23275;48.914;12.566;2023-07-29T00:52:25;3.22;;;1.75;;
37409;SDS011;23275;48.914;12.566;2023-07-29T00:54:50;4.78;;;2.08;;
37409;SDS011;23275;48.914;12.566;2023-07-29T00:57:16;4.07;;;1.67;;
37409;SDS011;23275;48.914;12.566;2023-07-29T00:59:42;4.82;;;2.20;;
37409;SDS011;23275;48.914;12.566;2023-07-29T01:02:08;3.55;;;1.92;;
37409;SDS011;23275;48.914;12.566;2023-07-29T01:04:34;4.60;;;2.70;;
37409;SDS011;23275;48.914;12.566;2023-07-29T01:07:19;4.75;;;2.28;;
37409;SDS011;23275;48.914;12.566;2023-07-29T01:18:23;3.90;;;2.78;;
37409;SDS011;23275;48.914;12.566;2023-07-29T01:20:53;3.75;;;2.78;;
37409;SDS011;23275;48.914;12.566;2023-07-29T01:23:26;4.93;;;2.95;;
37409;SDS011;23275;48.914;12.566;2023-07-29T01:25:55;4.00;;;2.83;;
37409;SDS011;23275;48.914;12.566;2023-07-29T01:28:20;4.60;;;3.20;;
37409;SDS011;23275;48.914;12.566;2023-07-29T01:30:46;7.45;;;2.92;;
37409;SDS011;23275;48.914;12.566;2023-07-29T01:33:17;6.50;;;3.00;;
37409;SDS011;23275;48.914;12.566;2023-07-29T01:36:01;3.83;;;2.90;;
37409;SDS011;23275;48.914;12.566;2023-07-29T01:38:33;5.70;;;3.20;;
37409;SDS011;23275;48.914;12.566;2023-07-29T01:41:01;6.15;;;3.17;;
37409;SDS011;23275;48.914;12.566;2023-07-29T01:43:28;5.80;;;3.22;;
37409;SDS011;23275;48.914;12.566;2023-07-29T01:45:54;6.35;;;3.05;;
37409;SDS011;23275;48.914;12.566;2023-07-29T01:48:20;6.78;;;3.65;;
37409;SDS011;23275;48.914;12.566;2023-07-29T01:50:45;5.53;;;3.22;;
37409;SDS011;23275;48.914;12.566;2023-07-29T01:53:11;4.72;;;2.97;;
37409;SDS011;23275;48.914;12.566;2023-07-29T01:55:36;5.65;;;3.35;;
37409;SDS011;23275;48.914;12.566;2023-07-29T01:58:03;6.78;;;2.92;;
37409;SDS011;23275;48.914;12.566;2023-07-29T02:00:29;4.93;;;2.95;;
37409;SDS011;23275;48.914;12.566;2023-07-29T02:02:54;5.07;;;3.30;;
37409;SDS011;23275;48.914;12.566;2023-07-29T02:05:20;4.65;;;2.95;;
37409;SDS011;23275;48.914;12.566;2023-07-29T02:07:45;4.45;;;3.35;;
37409;SDS011;23275;48.914;12.566;2023-07-29T02:10:11;6.95;;;3.30;;
37409;SDS011;23275;48.914;12.566;2023-07-29T02:12:37;3.42;;;2.65;;
37409;SDS011;23275;48.914;12.566;2023-07-29T02:15:03;4.75;;;3.00;;
37409;SDS011;23275;48.914;12.566;2023-07-29T02:17:29;7.45;;;2.95;;
37409;SDS011;23275;48.914;12.566;2023-07-29T02:19:55;5.65;;;3.30;;
37409;SDS011;23275;48.914;12.566;2023-07-29T02:22:20;6.40;;;3.10;;
37409;SDS011;23275;48.914;12.566;2023-07-29T02:24:46;6.97;;;2.95;;
37409;SDS011;23275;48.914;12.566;2023-07-29T02:27:11;5.20;;;3.17;;
37409;SDS011;23275;48.914;12.566;2023-07-29T02:29:37;4.47;;;3.00;;
37409;SDS011;23275;48.914;12.566;2023-07-29T02:32:02;5.07;;;2.78;;
37409;SDS011;23275;48.914;12.566;2023-07-29T02:34:29;4.63;;;3.08;;
37409;SDS011;23275;48.914;12.566;2023-07-29T02:36:54;4.43;;;2.83;;
37409;SDS011;23275;48.914;12.566;2023-07-29T02:39:20;6.47;;;2.80;;
37409;SDS011;23275;48.914;12.566;2023-07-29T02:41:46;4.22;;;3.00;;
37409;SDS011;23275;48.914;12.566;2023-07-29T02:44:11;4.18;;;2.75;;
37409;SDS011;23275;48.914;12.566;2023-07-29T02:46:37;3.88;;;2.80;;
37409;SDS011;23275;48.914;12.566;2023-07-29T02:49:02;7.68;;;2.90;;
37409;SDS011;23275;48.914;12.566;2023-07-29T02:51:29;4.63;;;2.67;;
37409;SDS011;23275;48.914;12.566;2023-07-29T02:53:55;4.10;;;2.78;;
37409;SDS011;23275;48.914;12.566;2023-07-29T02:56:20;3.85;;;2.78;;
37409;SDS011;23275;48.914;12.566;2023-07-29T02:58:46;4.50;;;3.28;;
37409;SDS011;23275;48.914;12.566;2023-07-29T03:01:11;4.78;;;2.97;;
37409;SDS011;23275;48.914;12.566;2023-07-29T03:03:37;5.80;;;3.03;;
37409;SDS011;23275;48.914;12.566;2023-07-29T03:06:05;4.55;;;2.83;;
37409;SDS011;23275;48.914;12.566;2023-07-29T03:08:32;4.75;;;2.45;;
37409;SDS011;23275;48.914;12.566;2023-07-29T03:10:58;4.47;;;2.65;;
37409;SDS011;23275;48.914;12.566;2023-07-29T03:13:24;3.83;;;2.47;;
37409;SDS011;23275;48.914;12.566;2023-07-29T03:15:49;5.85;;;2.88;;
37409;SDS011;23275;48.914;12.566;2023-07-29T03:18:16;5.88;;;2.70;;
37409;SDS011;23275;48.914;12.566;2023-07-29T03:20:41;4.03;;;2.83;;
37409;SDS011;23275;48.914;12.566;2023-07-29T03:23:07;4.28;;;2.67;;
37409;SDS011;23275;48.914;12.566;2023-07-29T03:25:32;3.78;;;2.60;;
37409;SDS011;23275;48.914;12.566;2023-07-29T03:27:58;5.00;;;2.15;;
37409;SDS011;23275;48.914;12.566;2023-07-29T03:30:24;5.13;;;2.60;;
37409;SDS011;23275;48.914;12.566;2023-07-29T03:32:49;3.50;;;2.25;;
37409;SDS011;23275;48.914;12.566;2023-07-29T03:35:15;6.13;;;2.40;;
37409;SDS011;23275;48.914;12.566;2023-07-29T03:37:41;4.00;;;2.10;;
37409;SDS011;23275;48.914;12.566;2023-07-29T03:40:07;3.65;;;2.85;;
37409;SDS011;23275;48.914;12.566;2023-07-29T03:42:34;8.77;;;1.90;;
37409;SDS011;23275;48.914;12.566;2023-07-29T03:45:00;3.00;;;2.17;;
37409;SDS011;23275;48.914;12.566;2023-07-29T03:47:25;3.55;;;1.95;;
37409;SDS011;23275;48.914;12.566;2023-07-29T03:49:51;9.10;;;3.15;;
37409;SDS011;23275;48.914;12.566;2023-07-29T03:52:17;5.68;;;1.98;;
37409;SDS011;23275;48.914;12.566;2023-07-29T03:54:42;2.55;;;1.60;;
37409;SDS011;23275;48.914;12.566;2023-07-29T03:57:08;7.13;;;4.03;;
37409;SDS011;23275;48.914;12.566;2023-07-29T03:59:33;6.05;;;4.50;;
37409;SDS011;23275;48.914;12.566;2023-07-29T04:01:59;6.25;;;4.60;;
37409;SDS011;23275;48.914;12.566;2023-07-29T04:04:24;5.22;;;2.15;;
37409;SDS011;23275;48.914;12.566;2023-07-29T04:06:50;4.57;;;1.00;;
37409;SDS011;23275;48.914;12.566;2023-07-29T04:09:16;18.95;;;1.45;;
37409;SDS011;23275;48.914;12.566;2023-07-29T04:11:41;4.22;;;1.30;;
37409;SDS011;23275;48.914;12.566;2023-07-29T04:14:07;55.67;;;2.38;;
37409;SDS011;23275;48.914;12.566;2023-07-29T04:16:32;3.53;;;1.77;;
37409;SDS011;23275;48.914;12.566;2023-07-29T04:18:58;3.75;;;2.08;;
37409;SDS011;23275;48.914;12.566;2023-07-29T04:21:24;6.75;;;2.30;;
37409;SDS011;23275;48.914;12.566;2023-07-29T04:23:50;39.13;;;2.72;;
37409;SDS011;23275;48.914;12.566;2023-07-29T04:26:16;12.13;;;2.00;;
37409;SDS011;23275;48.914;12.566;2023-07-29T04:28:41;5.30;;;2.45;;
37409;SDS011;23275;48.914;12.566;2023-07-29T04:31:08;5.32;;;2.30;;
37409;SDS011;23275;48.914;12.566;2023-07-29T04:33:33;3.55;;;2.08;;
37409;SDS011;23275;48.914;12.566;2023-07-29T04:35:59;58.33;;;3.83;;
37409;SDS011;23275;48.914;12.566;2023-07-29T04:38:30;29.95;;;3.47;;
37409;SDS011;23275;48.914;12.566;2023-07-29T04:40:57;5.43;;;2.10;;
37409;SDS011;23275;48.914;12.566;2023-07-29T04:43:26;4.88;;;2.20;;
37409;SDS011;23275;48.914;12.566;2023-07-29T04:45:56;4.38;;;2.70;;
37409;SDS011;23275;48.914;12.566;2023-07-29T04:48:22;5.93;;;3.53;;
37409;SDS011;23275;48.914;12.566;2023-07-29T04:50:47;5.30;;;3.47;;
37409;SDS011;23275;48.914;12.566;2023-07-29T04:53:13;4.50;;;3.08;;
37409;SDS011;23275;48.914;12.566;2023-07-29T04:55:41;5.30;;;3.45;;
37409;SDS011;23275;48.914;12.566;2023-07-29T04:58:07;7.65;;;3.38;;
37409;SDS011;23275;48.914;12.566;2023-07-29T05:00:33;4.88;;;3.55;;
37409;SDS011;23275;48.914;12.566;2023-07-29T05:02:59;6.72;;;3.50;;
37409;SDS011;23275;48.914;12.566;2023-07-29T05:05:24;6.95;;;3.47;;
37409;SDS011;23275;48.914;12.566;2023-07-29T05:07:50;5.47;;;3.60;;
37409;SDS011;23275;48.914;12.566;2023-07-29T05:10:15;6.65;;;3.65;;
37409;SDS011;23275;48.914;12.566;2023-07-29T05:12:41;6.57;;;3.45;;
37409;SDS011;23275;48.914;12.566;2023-07-29T05:15:06;5.97;;;3.90;;
37409;SDS011;23275;48.914;12.566;2023-07-29T05:17:32;5.57;;;3.17;;
37409;SDS011;23275;48.914;12.566;2023-07-29T05:19:58;5.60;;;3.22;;
37409;SDS011;23275;48.914;12.566;2023-07-29T05:22:23;5.45;;;2.97;;
37409;SDS011;23275;48.914;12.566;2023-07-29T05:24:50;4.90;;;3.00;;
37409;SDS011;23275;48.914;12.566;2023-07-29T05:27:15;4.55;;;2.95;;
37409;SDS011;23275;48.914;12.566;2023-07-29T05:29:41;4.68;;;2.80;;
37409;SDS011;23275;48.914;12.566;2023-07-29T05:32:07;4.43;;;2.85;;
37409;SDS011;23275;48.914;12.566;2023-07-29T05:34:32;5.82;;;2.97;;
37409;SDS011;23275;48.914;12.566;2023-07-29T05:36:58;3.80;;;2.63;;
37409;SDS011;23275;48.914;12.566;2023-07-29T05:39:23;6.15;;;3.13;;
37409;SDS011;23275;48.914;12.566;2023-07-29T05:41:49;4.28;;;3.00;;
37409;SDS011;23275;48.914;12.566;2023-07-29T05:44:14;4.90;;;2.90;;
37409;SDS011;23275;48.914;12.566;2023-07-29T05:46:40;4.22;;;3.22;;
37409;SDS011;23275;48.914;12.566;2023-07-29T05:49:06;5.35;;;2.97;;
37409;SDS011;23275;48.914;12.566;2023-07-29T05:51:31;3.55;;;2.67;;
37409;SDS011;23275;48.914;12.566;2023-07-29T05:53:57;3.70;;;2.53;;
37409;SDS011;23275;48.914;12.566;2023-07-29T05:56:22;4.20;;;2.90;;
37409;SDS011;23275;48.914;12.566;2023-07-29T05:58:48;6.30;;;2.75;;
37409;SDS011;23275;48.914;12.566;2023-07-29T06:01:13;3.95;;;2.42;;
37409;SDS011;23275;48.914;12.566;2023-07-29T06:03:39;5.32;;;2.53;;
37409;SDS011;23275;48.914;12.566;2023-07-29T06:06:04;4.38;;;2.90;;
37409;SDS011;23275;48.914;12.566;2023-07-29T06:08:30;3.90;;;2.30;;
37409;SDS011;23275;48.914;12.566;2023-07-29T06:10:58;4.20;;;2.30;;
37409;SDS011;23275;48.914;12.566;2023-07-29T06:13:23;3.78;;;2.38;;
37409;SDS011;23275;48.914;12.566;2023-07-29T06:15:49;5.10;;;2.70;;
37409;SDS011;23275;48.914;12.566;2023-07-29T06:18:14;4.05;;;2.58;;
37409;SDS011;23275;48.914;12.566;2023-07-29T06:20:40;5.75;;;2.50;;
37409;SDS011;23275;48.914;12.566;2023-07-29T06:23:06;4.95;;;2.42;;
37409;SDS011;23275;48.914;12.566;2023-07-29T06:25:32;5.65;;;2.70;;
37409;SDS011;23275;48.914;12.566;2023-07-29T06:27:58;4.88;;;2.70;;
37409;SDS011;23275;48.914;12.566;2023-07-29T06:30:23;3.30;;;2.10;;
37409;SDS011;23275;48.914;12.566;2023-07-29T06:32:49;3.88;;;2.40;;
37409;SDS011;23275;48.914;12.566;2023-07-29T06:35:15;4.10;;;2.00;;
37409;SDS011;23275;48.914;12.566;2023-07-29T06:37:40;3.38;;;1.90;;
37409;SDS011;23275;48.914;12.566;2023-07-29T06:40:06;3.97;;;1.90;;
37409;SDS011;23275;48.914;12.566;2023-07-29T06:42:32;4.32;;;2.15;;
37409;SDS011;23275;48.914;12.566;2023-07-29T06:44:58;6.35;;;2.10;;
37409;SDS011;23275;48.914;12.566;2023-07-29T06:47:23;3.97;;;2.00;;
37409;SDS011;23275;48.914;12.566;2023-07-29T06:49:49;5.95;;;3.13;;
37409;SDS011;23275;48.914;12.566;2023-07-29T06:52:15;5.85;;;3.08;;
37409;SDS011;23275;48.914;12.566;2023-07-29T06:54:41;4.38;;;2.85;;
37409;SDS011;23275;48.914;12.566;2023-07-29T06:57:06;4.47;;;2.55;;
37409;SDS011;23275;48.914;12.566;2023-07-29T06:59:32;3.83;;;2.42;;
37409;SDS011;23275;48.914;12.566;2023-07-29T07:01:57;5.97;;;2.35;;
37409;SDS011;23275;48.914;12.566;2023-07-29T07:04:24;3.47;;;2.45;;
37409;SDS011;23275;48.914;12.566;2023-07-29T07:06:50;4.78;;;3.00;;
37409;SDS011;23275;48.914;12.566;2023-07-29T07:09:15;4.45;;;2.50;;
37409;SDS011;23275;48.914;12.566;2023-07-29T07:11:41;5.82;;;3.15;;
37409;SDS011;23275;48.914;12.566;2023-07-29T07:14:07;5.68;;;3.35;;
37409;SDS011;23275;48.914;12.566;2023-07-29T07:16:32;5.03;;;3.20;;
37409;SDS011;23275;48.914;12.566;2023-07-29T07:18:58;6.82;;;3.05;;
37409;SDS011;23275;48.914;12.566;2023-07-29T07:21:23;5.40;;;3.03;;
37409;SDS011;23275;48.914;12.566;2023-07-29T07:23:49;6.28;;;2.80;;
37409;SDS011;23275;48.914;12.566;2023-07-29T07:26:15;3.33;;;2.42;;
37409;SDS011;23275;48.914;12.566;2023-07-29T07:28:41;3.83;;;2.42;;
37409;SDS011;23275;48.914;12.566;2023-07-29T07:31:06;4.45;;;2.47;;
37409;SDS011;23275;48.914;12.566;2023-07-29T07:33:32;5.72;;;2.63;;
37409;SDS011;23275;48.914;12.566;2023-07-29T07:35:57;5.18;;;2.53;;
37409;SDS011;23275;48.914;12.566;2023-07-29T07:38:23;4.85;;;2.13;;
37409;SDS011;23275;48.914;12.566;2023-07-29T07:40:52;3.90;;;2.22;;
37409;SDS011;23275;48.914;12.566;2023-07-29T07:43:21;4.15;;;2.03;;
37409;SDS011;23275;48.914;12.566;2023-07-29T07:45:46;3.17;;;2.13;;
37409;SDS011;23275;48.914;12.566;2023-07-29T07:48:12;4.03;;;1.85;;
37409;SDS011;23275;48.914;12.566;2023-07-29T07:50:38;3.88;;;2.35;;
37409;SDS011;23275;48.914;12.566;2023-07-29T07:53:04;6.47;;;2.20;;
37409;SDS011;23275;48.914;12.566;2023-07-29T07:55:29;5.47;;;1.67;;
37409;SDS011;23275;48.914;12.566;2023-07-29T07:57:55;4.22;;;2.17;;
37409;SDS011;23275;48.914;12.566;2023-07-29T08:00:21;4.82;;;2.22;;
37409;SDS011;23275;48.914;12.566;2023-07-29T08:02:46;2.72;;;1.73;;
37409;SDS011;23275;48.914;12.566;2023-07-29T08:05:12;4.45;;;2.20;;
37409;SDS011;23275;48.914;12.566;2023-07-29T08:07:38;6.82;;;4.78;;
37409;SDS011;23275;48.914;12.566;2023-07-29T08:10:03;4.28;;;2.67;;
37409;SDS011;23275;48.914;12.566;2023-07-29T08:12:29;8.40;;;2.50;;
37409;SDS011;23275;48.914;12.566;2023-07-29T08:14:55;6.15;;;2.50;;
37409;SDS011;23275;48.914;12.566;2023-07-29T08:17:20;3.15;;;1.80;;
37409;SDS011;23275;48.914;12.566;2023-07-29T08:19:46;5.18;;;2.53;;
37409;SDS011;23275;48.914;12.566;2023-07-29T08:22:11;5.40;;;2.30;;
37409;SDS011;23275;48.914;12.566;2023-07-29T08:24:37;4.50;;;2.63;;
37409;SDS011;23275;48.914;12.566;2023-07-29T08:27:02;4.45;;;2.38;;
37409;SDS011;23275;48.914;12.566;2023-07-29T08:29:28;6.43;;;2.95;;
37409;SDS011;23275;48.914;12.566;2023-07-29T08:31:53;4.20;;;2.60;;
37409;SDS011;23275;48.914;12.566;2023-07-29T08:34:20;7.15;;;2.63;;
37409;SDS011;23275;48.914;12.566;2023-07-29T08:36:46;9.25;;;3.30;;
37409;SDS011;23275;48.914;12.566;2023-07-29T08:39:11;15.02;;;4.00;;
37409;SDS011;23275;48.914;12.566;2023-07-29T08:41:37;8.52;;;4.25;;
37409;SDS011;23275;48.914;12.566;2023-07-29T08:44:09;11.45;;;5.22;;
37409;SDS011;23275;48.914;12.566;2023-07-29T08:46:38;6.72;;;3.33;;
37409;SDS011;23275;48.914;12.566;2023-07-29T08:49:04;6.05;;;3.00;;
37409;SDS011;23275;48.914;12.566;2023-07-29T08:51:31;6.32;;;2.80;;
37409;SDS011;23275;48.914;12.566;2023-07-29T08:53:58;5.30;;;2.97;;
37409;SDS011;23275;48.914;12.566;2023-07-29T08:56:24;4.30;;;1.98;;
37409;SDS011;23275;48.914;12.566;2023-07-29T08:58:50;5.10;;;2.10;;
37409;SDS011;23275;48.914;12.566;2023-07-29T09:01:17;4.68;;;2.03;;
37409;SDS011;23275;48.914;12.566;2023-07-29T09:03:42;2.95;;;1.92;;
37409;SDS011;23275;48.914;12.566;2023-07-29T09:06:08;4.22;;;2.17;;
37409;SDS011;23275;48.914;12.566;2023-07-29T09:08:34;4.53;;;2.20;;
37409;SDS011;23275;48.914;12.566;2023-07-29T09:11:00;4.13;;;1.95;;
37409;SDS011;23275;48.914;12.566;2023-07-29T09:13:26;4.47;;;2.15;;
37409;SDS011;23275;48.914;12.566;2023-07-29T09:15:55;3.28;;;1.52;;
37409;SDS011;23275;48.914;12.566;2023-07-29T09:18:22;3.78;;;1.77;;
37409;SDS011;23275;48.914;12.566;2023-07-29T09:20:48;3.75;;;1.80;;
37409;SDS011;23275;48.914;12.566;2023-07-29T09:23:15;2.45;;;1.33;;
37409;SDS011;23275;48.914;12.566;2023-07-29T09:25:41;2.15;;;1.30;;
37409;SDS011;23275;48.914;12.566;2023-07-29T09:28:08;4.38;;;1.20;;
37409;SDS011;23275;48.914;12.566;2023-07-29T09:30:35;2.95;;;1.40;;
37409;SDS011;23275;48.914;12.566;2023-07-29T09:33:02;3.78;;;1.40;;
37409;SDS011;23275;48.914;12.566;2023-07-29T09:35:29;2.63;;;1.48;;
37409;SDS011;23275;48.914;12.566;2023-07-29T09:37:57;3.72;;;1.30;;
37409;SDS011;23275;48.914;12.566;2023-07-29T09:40:23;2.67;;;1.42;;
37409;SDS011;23275;48.914;12.566;2023-07-29T09:42:52;4.03;;;1.50;;
37409;SDS011;23275;48.914;12.566;2023-07-29T09:45:23;2.03;;;1.13;;
37409;SDS011;23275;48.914;12.566;2023-07-29T09:47:49;2.78;;;1.10;;
37409;SDS011;23275;48.914;12.566;2023-07-29T09:50:16;3.33;;;1.20;;
37409;SDS011;23275;48.914;12.566;2023-07-29T09:52:42;2.10;;;1.20;;
37409;SDS011;23275;48.914;12.566;2023-07-29T09:55:12;2.65;;;1.27;;
37409;SDS011;23275;48.914;12.566;2023-07-29T09:57:39;2.08;;;1.17;;
37409;SDS011;23275;48.914;12.566;2023-07-29T10:00:05;2.33;;;1.17;;
37409;SDS011;23275;48.914;12.566;2023-07-29T10:02:36;2.03;;;1.02;;
37409;SDS011;23275;48.914;12.566;2023-07-29T10:05:06;3.17;;;1.27;;
37409;SDS011;23275;48.914;12.566;2023-07-29T10:07:33;2.95;;;1.50;;
37409;SDS011;23275;48.914;12.566;2023-07-29T10:12:30;1.80;;;0.90;;
37409;SDS011;23275;48.914;12.566;2023-07-29T10:14:58;2.10;;;1.10;;
37409;SDS011;23275;48.914;12.566;2023-07-29T10:17:25;5.30;;;1.20;;
37409;SDS011;23275;48.914;12.566;2023-07-29T10:19:51;2.00;;;1.10;;
37409;SDS011;23275;48.914;12.566;2023-07-29T10:22:19;2.55;;;1.23;;
37409;SDS011;23275;48.914;12.566;2023-07-29T10:24:46;3.78;;;1.13;;
37409;SDS011;23275;48.914;12.566;2023-07-29T10:27:14;2.63;;;1.33;;
37409;SDS011;23275;48.914;12.566;2023-07-29T10:29:44;4.00;;;1.20;;
37409;SDS011;23275;48.914;12.566;2023-07-29T10:32:11;3.50;;;1.45;;
37409;SDS011;23275;48.914;12.566;2023-07-29T10:34:36;2.58;;;1.10;;
37409;SDS011;23275;48.914;12.566;2023-07-29T10:37:04;2.70;;;1.20;;
37409;SDS011;23275;48.914;12.566;2023-07-29T10:39:39;3.50;;;1.50;;
37409;SDS011;23275;48.914;12.566;2023-07-29T10:42:16;5.70;;;1.48;;
37409;SDS011;23275;48.914;12.566;2023-07-29T10:47:26;3.78;;;1.67;;
37409;SDS011;23275;48.914;12.566;2023-07-29T10:49:57;5.05;;;1.75;;
37409;SDS011;23275;48.914;12.566;2023-07-29T10:52:31;5.32;;;2.28;;
37409;SDS011;23275;48.914;12.566;2023-07-29T10:55:01;4.43;;;2.08;;
37409;SDS011;23275;48.914;12.566;2023-07-29T11:00:06;4.38;;;2.03;;
37409;SDS011;23275;48.914;12.566;2023-07-29T11:02:32;4.57;;;2.25;;
37409;SDS011;23275;48.914;12.566;2023-07-29T11:05:07;4.70;;;2.13;;
37409;SDS011;23275;48.914;12.566;2023-07-29T11:07:43;3.38;;;2.10;;
37409;SDS011;23275;48.914;12.566;2023-07-29T11:10:11;3.53;;;2.10;;
37409;SDS011;23275;48.914;12.566;2023-07-29T11:17:42;7.82;;;2.10;;
37409;SDS011;23275;48.914;12.566;2023-07-29T11:20:29;5.63;;;1.80;;
37409;SDS011;23275;48.914;12.566;2023-07-29T11:22:57;4.85;;;2.05;;
37409;SDS011;23275;48.914;12.566;2023-07-29T11:25:24;3.85;;;2.05;;
37409;SDS011;23275;48.914;12.566;2023-07-29T11:27:52;3.63;;;1.90;;
37409;SDS011;23275;48.914;12.566;2023-07-29T11:30:20;3.20;;;2.13;;
37409;SDS011;23275;48.914;12.566;2023-07-29T11:32:47;3.17;;;2.13;;
37409;SDS011;23275;48.914;12.566;2023-07-29T11:35:14;4.63;;;2.03;;
37409;SDS011;23275;48.914;12.566;2023-07-29T11:37:41;3.63;;;1.90;;
37409;SDS011;23275;48.914;12.566;2023-07-29T11:40:08;3.60;;;2.05;;
37409;SDS011;23275;48.914;12.566;2023-07-29T11:42:38;5.38;;;1.90;;
37409;SDS011;23275;48.914;12.566;2023-07-29T11:45:04;2.97;;;1.52;;
37409;SDS011;23275;48.914;12.566;2023-07-29T11:47:34;2.83;;;1.50;;
37409;SDS011;23275;48.914;12.566;2023-07-29T11:50:04;5.90;;;2.08;;
37409;SDS011;23275;48.914;12.566;2023-07-29T11:52:31;3.78;;;1.90;;
37409;SDS011;23275;48.914;12.566;2023-07-29T11:54:58;3.70;;;2.00;;
37409;SDS011;23275;48.914;12.566;2023-07-29T11:57:25;2.88;;;1.95;;
37409;SDS011;23275;48.914;12.566;2023-07-29T11:59:51;3.67;;;1.98;;
37409;SDS011;23275;48.914;12.566;2023-07-29T12:02:18;3.35;;;1.95;;
37409;SDS011;23275;48.914;12.566;2023-07-29T12:04:46;4.03;;;2.15;;
37409;SDS011;23275;48.914;12.566;2023-07-29T12:07:12;2.33;;;1.60;;
37409;SDS011;23275;48.914;12.566;2023-07-29T12:09:40;2.78;;;1.75;;
37409;SDS011;23275;48.914;12.566;2023-07-29T12:12:06;2.92;;;1.65;;
37409;SDS011;23275;48.914;12.566;2023-07-29T12:14:33;3.60;;;1.73;;
37409;SDS011;23275;48.914;12.566;2023-07-29T12:16:59;4.05;;;1.27;;
37409;SDS011;23275;48.914;12.566;2023-07-29T12:19:31;3.30;;;1.52;;
37409;SDS011;23275;48.914;12.566;2023-07-29T12:21:58;2.92;;;1.23;;
37409;SDS011;23275;48.914;12.566;2023-07-29T12:24:23;3.58;;;1.40;;
37409;SDS011;23275;48.914;12.566;2023-07-29T12:26:49;2.50;;;1.10;;
37409;SDS011;23275;48.914;12.566;2023-07-29T12:29:18;2.60;;;1.13;;
37409;SDS011;23275;48.914;12.566;2023-07-29T12:31:45;3.10;;;1.30;;
37409;SDS011;23275;48.914;12.566;2023-07-29T12:34:17;3.83;;;1.52;;
37409;SDS011;23275;48.914;12.566;2023-07-29T12:36:46;3.45;;;1.40;;
37409;SDS011;23275;48.914;12.566;2023-07-29T12:39:20;2.63;;;1.33;;
37409;SDS011;23275;48.914;12.566;2023-07-29T12:41:51;2.50;;;1.52;;
37409;SDS011;23275;48.914;12.566;2023-07-29T12:44:19;2.35;;;1.33;;
37409;SDS011;23275;48.914;12.566;2023-07-29T12:46:44;4.25;;;1.20;;
37409;SDS011;23275;48.914;12.566;2023-07-29T12:49:10;2.80;;;1.20;;
37409;SDS011;23275;48.914;12.566;2023-07-29T12:51:36;2.80;;;1.30;;
37409;SDS011;23275;48.914;12.566;2023-07-29T12:54:02;4.70;;;2.65;;
37409;SDS011;23275;48.914;12.566;2023-07-29T12:56:29;2.08;;;1.20;;
37409;SDS011;23275;48.914;12.566;2023-07-29T12:58:56;2.10;;;1.30;;
37409;SDS011;23275;48.914;12.566;2023-07-29T13:01:23;3.55;;;2.05;;
37409;SDS011;23275;48.914;12.566;2023-07-29T13:03:48;3.35;;;2.28;;
37409;SDS011;23275;48.914;12.566;2023-07-29T13:06:14;2.17;;;1.20;;
37409;SDS011;23275;48.914;12.566;2023-07-29T13:08:40;4.80;;;1.58;;
37409;SDS011;23275;48.914;12.566;2023-07-29T13:11:06;2.90;;;1.33;;
37409;SDS011;23275;48.914;12.566;2023-07-29T13:13:32;2.72;;;1.42;;
37409;SDS011;23275;48.914;12.566;2023-07-29T13:15:57;5.35;;;1.60;;
37409;SDS011;23275;48.914;12.566;2023-07-29T13:18:23;8.18;;;1.60;;
37409;SDS011;23275;48.914;12.566;2023-07-29T13:20:48;3.25;;;1.40;;
37409;SDS011;23275;48.914;12.566;2023-07-29T13:23:15;2.25;;;1.42;;
37409;SDS011;23275;48.914;12.566;2023-07-29T13:25:41;3.10;;;1.40;;
37409;SDS011;23275;48.914;12.566;2023-07-29T13:28:07;1.80;;;1.17;;
37409;SDS011;23275;48.914;12.566;2023-07-29T13:30:33;2.10;;;1.20;;
37409;SDS011;23275;48.914;12.566;2023-07-29T13:32:59;1.88;;;1.17;;
37409;SDS011;23275;48.914;12.566;2023-07-29T13:35:24;2.20;;;1.20;;
37409;SDS011;23275;48.914;12.566;2023-07-29T13:37:50;4.53;;;1.20;;
37409;SDS011;23275;48.914;12.566;2023-07-29T13:40:16;9.60;;;1.35;;
37409;SDS011;23275;48.914;12.566;2023-07-29T13:42:41;5.50;;;1.50;;
37409;SDS011;23275;48.914;12.566;2023-07-29T13:45:07;2.60;;;1.35;;
37409;SDS011;23275;48.914;12.566;2023-07-29T13:47:33;4.55;;;1.25;;
37409;SDS011;23275;48.914;12.566;2023-07-29T13:49:59;4.22;;;1.40;;
37409;SDS011;23275;48.914;12.566;2023-07-29T13:52:25;2.78;;;1.30;;
37409;SDS011;23275;48.914;12.566;2023-07-29T13:54:51;3.47;;;1.30;;
37409;SDS011;23275;48.914;12.566;2023-07-29T13:57:17;3.30;;;1.10;;
37409;SDS011;23275;48.914;12.566;2023-07-29T13:59:43;2.15;;;1.13;;
37409;SDS011;23275;48.914;12.566;2023-07-29T14:02:08;3.10;;;1.33;;
37409;SDS011;23275;48.914;12.566;2023-07-29T14:04:34;3.00;;;1.17;;
37409;SDS011;23275;48.914;12.566;2023-07-29T14:07:00;3.78;;;1.42;;
37409;SDS011;23275;48.914;12.566;2023-07-29T14:09:26;5.13;;;1.42;;
37409;SDS011;23275;48.914;12.566;2023-07-29T14:11:51;1.75;;;1.00;;
37409;SDS011;23275;48.914;12.566;2023-07-29T14:14:18;2.10;;;1.20;;
37409;SDS011;23275;48.914;12.566;2023-07-29T14:16:44;3.67;;;1.65;;
37409;SDS011;23275;48.914;12.566;2023-07-29T14:19:09;2.17;;;0.93;;
37409;SDS011;23275;48.914;12.566;2023-07-29T14:21:35;2.15;;;0.88;;
37409;SDS011;23275;48.914;12.566;2023-07-29T14:24:00;2.92;;;1.23;;
37409;SDS011;23275;48.914;12.566;2023-07-29T14:26:26;2.25;;;0.80;;
37409;SDS011;23275;48.914;12.566;2023-07-29T14:28:51;1.88;;;0.90;;
37409;SDS011;23275;48.914;12.566;2023-07-29T14:31:17;1.83;;;1.00;;
37409;SDS011;23275;48.914;12.566;2023-07-29T14:33:43;2.78;;;1.05;;
37409;SDS011;23275;48.914;12.566;2023-07-29T14:36:09;2.15;;;1.05;;
37409;SDS011;23275;48.914;12.566;2023-07-29T14:38:35;1.92;;;0.82;;
37409;SDS011;23275;48.914;12.566;2023-07-29T14:41:01;3.80;;;1.33;;
37409;SDS011;23275;48.914;12.566;2023-07-29T14:43:28;1.90;;;0.95;;
37409;SDS011;23275;48.914;12.566;2023-07-29T14:45:55;2.38;;;1.17;;
37409;SDS011;23275;48.914;12.566;2023-07-29T14:48:20;2.00;;;0.93;;
37409;SDS011;23275;48.914;12.566;2023-07-29T14:50:46;3.45;;;1.50;;